Time;durP1;ratioP1;P1;durP2;ratioP2;P2;SDS_P1;SDS_P2;PMS_P1;PMS_P2;Temp;Humidity;BMP_temperature;BMP_pressure;BME280_temperature;BME280_humidity;BME280_pressure;Samples;Min_cycle;Max_cycle;Signal;HPM_P1;HPM_P2
2022/07/26 00:02:15;;;;;;;1.30;0.40;;;;;;;;;;5022685;28;20033;-82
2022/07/26 00:05:01;;;;;;;0.68;0.17;;;;;;;;;;5022693;28;20040;-82
2022/07/26 00:07:47;;;;;;;1.48;0.30;;;;;;;;;;5023032;28;20033;-82
2022/07/26 00:10:33;;;;;;;1.05;0.40;;;;;;;;;;5024966;28;20045;-81
2022/07/26 00:13:19;;;;;;;2.55;0.40;;;;;;;;;;5024297;28;20048;-82
2022/07/26 00:16:05;;;;;;;1.55;0.35;;;;;;;;;;5022372;28;20076;-82
2022/07/26 00:18:50;;;;;;;1.10;0.50;;;;;;;;;;5022378;28;20530;-82
2022/07/26 00:21:36;;;;;;;3.10;0.77;;;;;;;;;;5022373;28;20493;-81
2022/07/26 00:24:22;;;;;;;1.05;0.30;;;;;;;;;;5022707;28;20044;-82
2022/07/26 00:27:08;;;;;;;1.35;0.50;;;;;;;;;;5022443;28;20044;-82
2022/07/26 00:29:53;;;;;;;1.63;0.52;;;;;;;;;;5023911;28;20494;-81
2022/07/26 00:32:39;;;;;;;1.48;0.50;;;;;;;;;;5022188;28;20482;-82
2022/07/26 00:35:25;;;;;;;1.65;1.08;;;;;;;;;;5037065;28;20044;-82
2022/07/26 00:38:11;;;;;;;1.90;0.40;;;;;;;;;;5024405;28;20112;-81
2022/07/26 00:40:56;;;;;;;1.30;0.65;;;;;;;;;;5023153;28;20045;-82
2022/07/26 00:43:55;;;;;;;1.63;0.50;;;;;;;;;;5021806;28;20025;-82
2022/07/26 00:46:44;;;;;;;1.40;0.60;;;;;;;;;;5023480;28;20143;-81
2022/07/26 00:49:30;;;;;;;2.95;0.50;;;;;;;;;;5036422;28;20041;-82
2022/07/26 00:52:16;;;;;;;2.50;0.28;;;;;;;;;;5036430;28;20037;-82
2022/07/26 00:55:03;;;;;;;1.33;0.43;;;;;;;;;;5023525;28;20033;-81
2022/07/26 00:57:49;;;;;;;1.85;0.52;;;;;;;;;;5021870;28;20041;-82
2022/07/26 01:00:34;;;;;;;1.30;0.20;;;;;;;;;;5036232;28;20073;-81
2022/07/26 01:03:20;;;;;;;1.25;0.45;;;;;;;;;;5023794;28;20041;-82
2022/07/26 01:06:06;;;;;;;1.50;0.60;;;;;;;;;;5036754;28;20037;-81
2022/07/26 01:08:52;;;;;;;2.35;0.45;;;;;;;;;;5037335;28;20087;-81
2022/07/26 01:11:38;;;;;;;1.33;0.43;;;;;;;;;;5021538;28;20033;-82
2022/07/26 01:14:23;;;;;;;2.00;0.30;;;;;;;;;;5022333;28;20048;-82
2022/07/26 01:17:10;;;;;;;1.85;0.35;;;;;;;;;;5021703;28;20268;-82
2022/07/26 01:19:56;;;;;;;2.03;0.60;;;;;;;;;;5021646;28;20041;-82
2022/07/26 01:22:41;;;;;;;1.88;0.40;;;;;;;;;;5022052;28;20068;-82
2022/07/26 01:25:29;;;;;;;2.83;0.70;;;;;;;;;;5036511;28;20040;-81
2022/07/26 01:28:15;;;;;;;2.15;0.88;;;;;;;;;;5023629;28;20037;-82
2022/07/26 01:31:00;;;;;;;2.22;0.40;;;;;;;;;;5035601;28;20037;-81
2022/07/26 01:33:46;;;;;;;3.03;1.05;;;;;;;;;;5036018;28;20044;-82
2022/07/26 01:36:32;;;;;;;0.93;0.22;;;;;;;;;;5035814;28;20383;-81
2022/07/26 01:39:18;;;;;;;2.50;0.38;;;;;;;;;;5034828;28;20392;-82
2022/07/26 01:42:03;;;;;;;1.75;0.50;;;;;;;;;;5035991;28;20037;-81
2022/07/26 01:44:49;;;;;;;1.30;0.30;;;;;;;;;;5035985;28;20287;-81
2022/07/26 01:47:35;;;;;;;2.28;0.43;;;;;;;;;;5035630;28;20538;-82
2022/07/26 01:50:21;;;;;;;1.23;0.65;;;;;;;;;;5035465;28;20068;-82
2022/07/26 01:53:07;;;;;;;2.70;0.95;;;;;;;;;;5021379;28;20041;-81
2022/07/26 01:55:52;;;;;;;1.83;0.60;;;;;;;;;;5020962;28;20033;-81
2022/07/26 01:58:39;;;;;;;1.77;0.70;;;;;;;;;;5021232;28;20551;-81
2022/07/26 02:01:25;;;;;;;2.97;0.40;;;;;;;;;;5022551;28;20049;-81
2022/07/26 02:04:57;;;;;;;1.60;0.45;;;;;;;;;;5021288;28;20037;-81
2022/07/26 02:07:16;;;;;;;1.88;0.43;;;;;;;;;;5037675;28;20033;-82
2022/07/26 02:10:02;;;;;;;3.63;0.75;;;;;;;;;;5035528;28;20049;-82
2022/07/26 02:12:48;;;;;;;2.22;0.45;;;;;;;;;;5050389;28;20033;-82
2022/07/26 02:15:34;;;;;;;1.65;0.40;;;;;;;;;;5021006;28;20057;-82
2022/07/26 02:18:20;;;;;;;1.65;0.50;;;;;;;;;;5036549;28;20108;-81
2022/07/26 02:21:06;;;;;;;3.47;0.60;;;;;;;;;;5021073;28;20032;-81
2022/07/26 02:23:51;;;;;;;3.67;0.60;;;;;;;;;;5037077;28;20044;-82
2022/07/26 02:26:37;;;;;;;2.25;0.47;;;;;;;;;;5038523;28;20044;-81
2022/07/26 02:29:23;;;;;;;1.60;0.43;;;;;;;;;;5024529;28;20044;-82
2022/07/26 02:32:09;;;;;;;2.20;0.40;;;;;;;;;;5039864;28;20041;-82
2022/07/26 02:34:55;;;;;;;2.50;0.70;;;;;;;;;;5038877;28;20504;-82
2022/07/26 02:37:41;;;;;;;1.48;0.60;;;;;;;;;;5039230;28;20388;-81
2022/07/26 02:40:27;;;;;;;1.90;0.50;;;;;;;;;;5039062;28;20045;-81
2022/07/26 02:43:12;;;;;;;1.98;0.40;;;;;;;;;;5039288;28;20040;-82
2022/07/26 02:45:58;;;;;;;1.98;0.60;;;;;;;;;;5039467;28;20115;-81
2022/07/26 02:48:44;;;;;;;1.52;0.45;;;;;;;;;;5052887;28;20071;-81
2022/07/26 02:51:30;;;;;;;2.05;0.68;;;;;;;;;;5038819;28;20584;-81
2022/07/26 02:54:15;;;;;;;1.17;0.50;;;;;;;;;;5039052;28;20041;-81
2022/07/26 02:57:01;;;;;;;2.10;0.35;;;;;;;;;;5038927;28;20036;-82
2022/07/26 02:59:47;;;;;;;2.70;0.70;;;;;;;;;;5038180;28;20091;-81
2022/07/26 03:02:33;;;;;;;3.38;0.70;;;;;;;;;;5038813;28;20037;-82
2022/07/26 03:05:18;;;;;;;2.20;1.27;;;;;;;;;;5038604;28;20045;-82
2022/07/26 03:08:05;;;;;;;2.28;0.60;;;;;;;;;;5051832;28;20035;-81
2022/07/26 03:10:51;;;;;;;3.85;1.38;;;;;;;;;;5025580;28;20130;-82
2022/07/26 03:13:36;;;;;;;2.38;0.70;;;;;;;;;;5023956;28;20036;-81
2022/07/26 03:16:22;;;;;;;3.53;0.80;;;;;;;;;;5036889;28;20081;-81
2022/07/26 03:19:08;;;;;;;3.92;0.60;;;;;;;;;;5038228;28;20124;-82
2022/07/26 03:21:54;;;;;;;4.07;0.60;;;;;;;;;;5038495;28;20041;-82
2022/07/26 03:24:39;;;;;;;1.55;0.65;;;;;;;;;;5024781;28;20069;-81
2022/07/26 03:27:25;;;;;;;3.55;0.98;;;;;;;;;;5024727;28;20124;-81
2022/07/26 03:30:11;;;;;;;3.00;0.47;;;;;;;;;;5024510;28;20049;-81
2022/07/26 03:32:57;;;;;;;3.25;0.95;;;;;;;;;;5038256;28;20039;-81
2022/07/26 03:35:43;;;;;;;4.25;0.90;;;;;;;;;;5038341;28;20123;-82
2022/07/26 03:38:29;;;;;;;3.03;0.50;;;;;;;;;;5023149;28;20102;-81
2022/07/26 03:41:14;;;;;;;2.95;0.73;;;;;;;;;;5024273;28;20068;-81
2022/07/26 03:44:00;;;;;;;3.80;0.75;;;;;;;;;;5025382;28;20423;-81
2022/07/26 03:46:46;;;;;;;1.58;0.70;;;;;;;;;;5023107;28;20044;-81
2022/07/26 03:49:31;;;;;;;2.13;0.85;;;;;;;;;;5022973;28;20037;-81
2022/07/26 03:52:17;;;;;;;1.42;0.68;;;;;;;;;;5025008;28;20029;-81
2022/07/26 03:56:27;;;;;;;2.47;0.73;;;;;;;;;;5022985;28;20570;-81
2022/07/26 03:58:09;;;;;;;3.13;1.10;;;;;;;;;;5039736;28;20075;-82
2022/07/26 04:00:55;;;;;;;2.45;0.70;;;;;;;;;;5022517;28;20423;-81
2022/07/26 04:03:41;;;;;;;3.25;1.13;;;;;;;;;;5023742;28;20414;-81
2022/07/26 04:06:27;;;;;;;2.67;1.05;;;;;;;;;;5022535;28;20059;-82
2022/07/26 04:09:14;;;;;;;4.07;0.85;;;;;;;;;;5022863;28;20051;-81
2022/07/26 04:12:00;;;;;;;3.55;0.82;;;;;;;;;;5023861;28;20037;-82
2022/07/26 04:14:46;;;;;;;2.63;0.95;;;;;;;;;;5035702;28;20062;-81
2022/07/26 04:17:40;;;;;;;1.75;0.75;;;;;;;;;;5023631;28;20148;-81
2022/07/26 04:20:26;;;;;;;4.53;1.20;;;;;;;;;;5024157;28;20044;-81
2022/07/26 04:23:12;;;;;;;2.15;0.80;;;;;;;;;;5022456;28;20037;-81
2022/07/26 04:25:58;;;;;;;3.47;1.77;;;;;;;;;;5022698;28;20033;-81
2022/07/26 04:28:43;;;;;;;5.82;1.38;;;;;;;;;;5025354;28;20041;-81
2022/07/26 04:31:29;;;;;;;2.40;0.65;;;;;;;;;;5022145;28;20541;-81
2022/07/26 04:34:15;;;;;;;4.05;1.30;;;;;;;;;;5037554;28;20415;-81
2022/07/26 04:37:00;;;;;;;2.65;0.80;;;;;;;;;;5038270;28;20048;-81
2022/07/26 04:39:46;;;;;;;2.42;0.98;;;;;;;;;;5037088;28;20040;-81
2022/07/26 04:42:32;;;;;;;4.68;1.08;;;;;;;;;;5036876;28;20037;-81
2022/07/26 04:45:18;;;;;;;4.15;0.93;;;;;;;;;;5036777;28;20045;-81
2022/07/26 04:48:04;;;;;;;4.40;1.35;;;;;;;;;;5036550;28;20533;-81
2022/07/26 04:50:50;;;;;;;3.10;1.27;;;;;;;;;;5036751;28;20083;-82
2022/07/26 04:53:35;;;;;;;4.05;1.10;;;;;;;;;;5024329;28;20033;-81
2022/07/26 04:56:21;;;;;;;4.47;1.35;;;;;;;;;;5021800;28;20033;-81
2022/07/26 04:59:07;;;;;;;3.45;1.30;;;;;;;;;;5024013;28;20037;-81
2022/07/26 05:01:52;;;;;;;2.50;1.02;;;;;;;;;;5023223;28;20029;-81
2022/07/26 05:04:38;;;;;;;2.90;0.80;;;;;;;;;;5035652;28;20048;-81
2022/07/26 05:07:24;;;;;;;4.72;1.30;;;;;;;;;;5021760;28;20048;-81
2022/07/26 05:10:10;;;;;;;2.80;0.90;;;;;;;;;;5021703;28;20120;-81
2022/07/26 05:12:56;;;;;;;4.32;1.95;;;;;;;;;;5024318;28;20098;-81
2022/07/26 05:15:42;;;;;;;2.08;0.80;;;;;;;;;;5036137;28;20049;-81
2022/07/26 05:18:28;;;;;;;5.20;1.20;;;;;;;;;;5021668;28;20091;-81
2022/07/26 05:21:14;;;;;;;3.20;1.10;;;;;;;;;;5021647;28;20096;-81
2022/07/26 05:24:00;;;;;;;4.40;1.35;;;;;;;;;;5022734;28;20040;-81
2022/07/26 05:26:46;;;;;;;4.97;1.15;;;;;;;;;;5036694;28;20462;-81
2022/07/26 05:29:32;;;;;;;3.88;1.35;;;;;;;;;;5021598;28;20564;-81
2022/07/26 05:32:17;;;;;;;3.53;1.25;;;;;;;;;;5034716;28;20029;-81
2022/07/26 05:35:04;;;;;;;5.78;1.60;;;;;;;;;;5034436;28;20043;-81
2022/07/26 05:37:50;;;;;;;5.32;1.80;;;;;;;;;;5035797;28;20041;-81
2022/07/26 05:40:36;;;;;;;5.18;1.92;;;;;;;;;;5035560;28;20045;-81
2022/07/26 05:43:21;;;;;;;4.32;1.23;;;;;;;;;;5021662;28;20430;-81
2022/07/26 05:46:08;;;;;;;3.20;1.35;;;;;;;;;;5022297;28;20052;-81
2022/07/26 05:48:54;;;;;;;5.47;1.38;;;;;;;;;;5022824;28;20111;-81
2022/07/26 05:51:39;;;;;;;5.65;1.88;;;;;;;;;;5034533;28;20260;-81
2022/07/26 05:54:25;;;;;;;2.72;1.27;;;;;;;;;;5036224;28;20494;-81
2022/07/26 05:57:11;;;;;;;3.63;1.40;;;;;;;;;;5021129;28;20513;-81
2022/07/26 05:59:57;;;;;;;5.13;1.25;;;;;;;;;;5024112;28;20084;-81
2022/07/26 06:02:42;;;;;;;5.35;1.80;;;;;;;;;;5026949;28;20033;-81
2022/07/26 06:05:28;;;;;;;4.97;1.73;;;;;;;;;;5039857;28;20029;-81
2022/07/26 06:08:14;;;;;;;4.25;1.45;;;;;;;;;;5026216;28;20072;-81
2022/07/26 06:10:59;;;;;;;5.55;1.45;;;;;;;;;;5026016;28;20043;-81
2022/07/26 06:13:46;;;;;;;4.43;1.50;;;;;;;;;;5025390;28;20040;-81
2022/07/26 06:16:32;;;;;;;3.47;1.27;;;;;;;;;;5024340;28;20045;-81
2022/07/26 06:19:18;;;;;;;3.85;1.50;;;;;;;;;;5026600;28;20041;-81
2022/07/26 06:22:03;;;;;;;5.03;2.13;;;;;;;;;;5025051;28;20037;-81
2022/07/26 06:24:49;;;;;;;3.63;2.10;;;;;;;;;;5039547;28;20063;-81
2022/07/26 06:27:35;;;;;;;5.43;2.10;;;;;;;;;;5027134;28;20043;-81
2022/07/26 06:30:21;;;;;;;3.40;1.88;;;;;;;;;;5025815;28;20037;-81
2022/07/26 06:33:07;;;;;;;3.60;1.67;;;;;;;;;;5039582;28;20076;-81
2022/07/26 06:35:53;;;;;;;4.05;1.70;;;;;;;;;;5025093;28;20488;-81
2022/07/26 06:38:39;;;;;;;4.57;1.83;;;;;;;;;;5025410;28;20040;-81
2022/07/26 06:41:24;;;;;;;4.75;1.77;;;;;;;;;;5024322;28;20033;-81
2022/07/26 06:44:10;;;;;;;5.03;2.10;;;;;;;;;;5024889;28;20079;-81
2022/07/26 06:46:56;;;;;;;5.78;1.88;;;;;;;;;;5023877;28;20049;-81
2022/07/26 06:49:43;;;;;;;5.25;2.00;;;;;;;;;;5038947;28;20060;-81
2022/07/26 06:52:31;;;;;;;3.22;1.98;;;;;;;;;;5024963;28;20126;-81
2022/07/26 06:55:17;;;;;;;5.28;2.50;;;;;;;;;;5024934;28;20041;-81
2022/07/26 06:58:03;;;;;;;4.30;1.60;;;;;;;;;;5038821;28;20519;-81
2022/07/26 07:00:48;;;;;;;4.50;1.98;;;;;;;;;;5023675;28;20036;-81
2022/07/26 07:03:34;;;;;;;4.97;2.58;;;;;;;;;;5025071;28;20040;-81
2022/07/26 07:06:20;;;;;;;4.82;2.40;;;;;;;;;;5024282;28;20049;-81
2022/07/26 07:09:06;;;;;;;3.50;2.35;;;;;;;;;;5023721;28;20095;-81
2022/07/26 07:11:51;;;;;;;5.93;2.95;;;;;;;;;;5026353;28;20033;-81
2022/07/26 07:14:38;;;;;;;4.03;2.00;;;;;;;;;;5023459;28;20037;-81
2022/07/26 07:17:23;;;;;;;6.07;2.88;;;;;;;;;;5023664;28;20063;-82
2022/07/26 07:20:10;;;;;;;4.65;2.35;;;;;;;;;;5025907;28;20139;-81
2022/07/26 07:22:55;;;;;;;4.55;2.33;;;;;;;;;;5024766;28;20174;-81
2022/07/26 07:25:41;;;;;;;6.72;2.38;;;;;;;;;;5038645;28;20036;-81
2022/07/26 07:28:27;;;;;;;4.30;2.40;;;;;;;;;;5023765;28;20091;-81
2022/07/26 07:31:13;;;;;;;5.32;2.30;;;;;;;;;;5024573;28;20171;-81
2022/07/26 07:33:58;;;;;;;3.08;1.98;;;;;;;;;;5023345;28;20033;-81
2022/07/26 07:36:44;;;;;;;3.95;1.63;;;;;;;;;;5025557;28;20037;-81
2022/07/26 07:39:30;;;;;;;4.72;2.20;;;;;;;;;;5023879;28;20408;-81
2022/07/26 07:42:16;;;;;;;3.97;1.85;;;;;;;;;;5025489;28;20048;-81
2022/07/26 07:45:02;;;;;;;4.07;2.17;;;;;;;;;;5023398;28;20456;-81
2022/07/26 07:47:48;;;;;;;5.90;2.70;;;;;;;;;;5023832;28;20438;-81
2022/07/26 07:50:34;;;;;;;4.65;2.97;;;;;;;;;;5024132;28;20124;-81
2022/07/26 07:53:19;;;;;;;5.72;2.33;;;;;;;;;;5023610;28;20069;-81
2022/07/26 07:56:05;;;;;;;3.67;2.13;;;;;;;;;;5037866;28;20091;-81
2022/07/26 07:58:51;;;;;;;6.57;2.88;;;;;;;;;;5022971;28;20115;-81
2022/07/26 08:01:37;;;;;;;4.63;2.60;;;;;;;;;;5023693;28;20033;-81
2022/07/26 08:04:22;;;;;;;3.85;2.65;;;;;;;;;;5035634;28;20034;-81
2022/07/26 08:07:08;;;;;;;3.55;1.92;;;;;;;;;;5022812;28;20134;-81
2022/07/26 08:09:54;;;;;;;5.63;2.75;;;;;;;;;;5022979;28;20139;-81
2022/07/26 08:12:40;;;;;;;4.15;2.20;;;;;;;;;;5024227;28;20086;-81
2022/07/26 08:15:26;;;;;;;3.83;2.42;;;;;;;;;;5037247;28;20044;-81
2022/07/26 08:18:12;;;;;;;5.57;3.13;;;;;;;;;;5023080;28;20077;-81
2022/07/26 08:20:58;;;;;;;3.65;2.10;;;;;;;;;;5024210;28;20037;-81
2022/07/26 08:23:43;;;;;;;4.28;2.33;;;;;;;;;;5037791;28;20037;-81
2022/07/26 08:26:29;;;;;;;3.75;2.35;;;;;;;;;;5022427;28;20048;-83
2022/07/26 08:29:15;;;;;;;4.13;2.15;;;;;;;;;;5022253;28;20040;-84
2022/07/26 08:32:01;;;;;;;3.78;1.95;;;;;;;;;;5037872;28;20083;-84
2022/07/26 08:34:47;;;;;;;5.45;3.13;;;;;;;;;;5024193;28;20083;-84
2022/07/26 08:37:32;;;;;;;2.55;2.13;;;;;;;;;;5022225;28;20037;-83
2022/07/26 08:40:18;;;;;;;3.65;2.20;;;;;;;;;;5022140;28;20087;-84
2022/07/26 08:43:04;;;;;;;5.13;2.45;;;;;;;;;;5023581;28;20135;-83
2022/07/26 08:45:49;;;;;;;5.10;2.20;;;;;;;;;;5049959;28;20052;-82
2022/07/26 08:48:36;;;;;;;5.78;2.33;;;;;;;;;;5024414;28;20033;-83
2022/07/26 08:51:23;;;;;;;4.22;2.25;;;;;;;;;;5022264;28;20573;-83
2022/07/26 08:54:10;;;;;;;3.88;2.53;;;;;;;;;;5022055;28;20040;-82
2022/07/26 08:56:57;;;;;;;3.72;2.70;;;;;;;;;;5024652;28;20071;-82
2022/07/26 08:59:43;;;;;;;6.13;2.75;;;;;;;;;;5050348;28;20041;-82
2022/07/26 09:02:38;;;;;;;3.50;2.45;;;;;;;;;;5021712;28;20033;-82
2022/07/26 09:05:28;;;;;;;4.70;2.10;;;;;;;;;;5036562;28;20441;-82
2022/07/26 09:08:22;;;;;;;3.53;2.10;;;;;;;;;;5050455;28;20063;-82
2022/07/26 09:11:23;;;;;;;5.00;2.42;;;;;;;;;;5023219;28;20039;-82
2022/07/26 09:14:09;;;;;;;4.13;2.50;;;;;;;;;;5049609;28;20044;-82
2022/07/26 09:16:58;;;;;;;5.78;2.83;;;;;;;;;;5048609;28;20049;-81
2022/07/26 09:19:45;;;;;;;4.93;2.03;;;;;;;;;;5036224;28;20503;-82
2022/07/26 09:22:30;;;;;;;4.68;2.40;;;;;;;;;;5037767;28;20123;-82
2022/07/26 09:25:20;;;;;;;3.13;2.33;;;;;;;;;;5021794;28;20040;-82
2022/07/26 09:28:28;;;;;;;3.88;2.17;;;;;;;;;;5036533;28;20427;-82
2022/07/26 09:31:14;;;;;;;5.63;2.63;;;;;;;;;;5036785;28;20514;-82
2022/07/26 09:33:59;;;;;;;4.07;2.42;;;;;;;;;;5026977;28;20045;-84
2022/07/26 09:36:49;;;;;;;3.15;2.20;;;;;;;;;;5025446;28;20092;-83
2022/07/26 09:39:57;;;;;;;4.25;2.50;;;;;;;;;;5040173;28;20052;-82
2022/07/26 09:43:15;;;;;;;3.28;2.00;;;;;;;;;;5041547;28;20040;-82
2022/07/26 09:46:02;;;;;;;5.90;2.80;;;;;;;;;;5053353;28;20148;-82
2022/07/26 09:48:48;;;;;;;6.15;3.33;;;;;;;;;;5053614;28;20087;-81
2022/07/26 09:51:36;;;;;;;5.55;2.85;;;;;;;;;;5040508;28;20138;-82
2022/07/26 09:54:28;;;;;;;4.30;2.70;;;;;;;;;;5053641;28;20063;-82
2022/07/26 09:57:18;;;;;;;5.10;3.28;;;;;;;;;;5053363;28;20040;-81
2022/07/26 10:00:04;;;;;;;4.72;3.22;;;;;;;;;;5025576;28;20037;-81
2022/07/26 10:02:52;;;;;;;4.35;2.95;;;;;;;;;;5026733;28;20587;-82
2022/07/26 10:05:38;;;;;;;4.40;2.83;;;;;;;;;;5039981;28;20475;-83
2022/07/26 10:08:23;;;;;;;3.22;2.38;;;;;;;;;;5026633;28;20048;-82
2022/07/26 10:11:09;;;;;;;4.32;2.53;;;;;;;;;;5039936;28;20041;-82
2022/07/26 10:13:56;;;;;;;5.57;2.83;;;;;;;;;;5026096;28;20427;-82
2022/07/26 10:16:42;;;;;;;4.95;2.72;;;;;;;;;;5026001;28;20045;-82
2022/07/26 10:19:38;;;;;;;4.07;2.92;;;;;;;;;;5039470;28;20033;-81
2022/07/26 10:22:32;;;;;;;5.80;3.40;;;;;;;;;;5051874;28;20064;-81
2022/07/26 10:25:18;;;;;;;4.35;2.40;;;;;;;;;;5040879;28;20124;-81
2022/07/26 10:28:04;;;;;;;5.57;3.05;;;;;;;;;;5053716;28;20044;-81
2022/07/26 10:30:50;;;;;;;3.60;2.30;;;;;;;;;;5039594;28;20053;-81
2022/07/26 10:33:41;;;;;;;3.45;2.35;;;;;;;;;;5026531;28;20438;-81
2022/07/26 10:36:29;;;;;;;5.05;2.47;;;;;;;;;;5024495;28;20128;-81
2022/07/26 10:39:15;;;;;;;5.82;2.60;;;;;;;;;;5024591;28;20045;-81
2022/07/26 10:42:08;;;;;;;3.88;2.38;;;;;;;;;;5026863;28;20120;-81
2022/07/26 10:44:53;;;;;;;4.90;2.70;;;;;;;;;;5036524;28;20037;-81
2022/07/26 10:48:02;;;;;;;4.25;2.60;;;;;;;;;;5039851;28;20503;-81
2022/07/26 10:50:49;;;;;;;3.38;2.22;;;;;;;;;;5052573;28;20045;-81
2022/07/26 10:53:35;;;;;;;5.82;3.05;;;;;;;;;;5025198;28;20033;-81
2022/07/26 10:56:21;;;;;;;4.07;2.50;;;;;;;;;;5024699;28;20045;-81
2022/07/26 10:59:06;;;;;;;2.67;1.95;;;;;;;;;;5024136;28;20040;-82
2022/07/26 11:01:52;;;;;;;5.07;2.70;;;;;;;;;;5025708;28;20041;-82
2022/07/26 11:04:38;;;;;;;3.80;2.33;;;;;;;;;;5023947;28;20044;-81
2022/07/26 11:07:23;;;;;;;3.58;2.25;;;;;;;;;;5023720;28;20048;-81
2022/07/26 11:10:09;;;;;;;4.57;2.17;;;;;;;;;;5050682;28;20139;-81
2022/07/26 11:13:08;;;;;;;4.63;2.08;;;;;;;;;;5038279;28;20450;-81
2022/07/26 11:16:01;;;;;;;3.08;1.98;;;;;;;;;;5052829;28;20048;-82
2022/07/26 11:18:47;;;;;;;4.18;2.25;;;;;;;;;;5023609;28;20068;-82
2022/07/26 11:21:32;;;;;;;3.70;2.10;;;;;;;;;;5036560;28;20041;-82
2022/07/26 11:24:20;;;;;;;2.78;1.73;;;;;;;;;;5039127;28;20033;-82
2022/07/26 11:27:06;;;;;;;3.20;1.80;;;;;;;;;;5038808;28;20049;-81
2022/07/26 11:29:52;;;;;;;3.20;1.88;;;;;;;;;;5051822;28;20495;-82
2022/07/26 11:32:38;;;;;;;3.35;1.92;;;;;;;;;;5023633;28;20427;-81
2022/07/26 11:35:25;;;;;;;3.17;2.03;;;;;;;;;;5037872;28;20033;-82
2022/07/26 11:38:10;;;;;;;4.07;2.03;;;;;;;;;;5039709;28;20041;-81
2022/07/26 11:40:56;;;;;;;3.88;2.13;;;;;;;;;;5038193;28;20044;-81
2022/07/26 11:43:42;;;;;;;3.75;2.05;;;;;;;;;;5052000;28;20056;-82
2022/07/26 11:46:38;;;;;;;3.25;1.70;;;;;;;;;;5025148;28;20045;-82
2022/07/26 11:49:28;;;;;;;3.33;1.73;;;;;;;;;;5037989;28;20040;-81
2022/07/26 11:52:14;;;;;;;4.97;1.77;;;;;;;;;;5038771;28;20091;-82
2022/07/26 11:55:00;;;;;;;2.58;1.42;;;;;;;;;;5052840;28;20048;-82
2022/07/26 11:57:46;;;;;;;4.00;1.42;;;;;;;;;;5024182;28;20037;-82
2022/07/26 12:00:31;;;;;;;3.67;2.00;;;;;;;;;;5037848;28;20037;-82
2022/07/26 12:03:17;;;;;;;2.70;1.25;;;;;;;;;;5025841;28;20435;-82
2022/07/26 12:06:04;;;;;;;2.75;1.42;;;;;;;;;;5037406;28;20043;-81
2022/07/26 12:08:56;;;;;;;2.97;1.35;;;;;;;;;;5038883;28;20037;-81
2022/07/26 12:11:46;;;;;;;2.73;1.07;;;;;;;;;;5038763;28;20043;-82
2022/07/26 12:14:33;;;;;;;2.80;1.13;;;;;;;;;;5036354;28;20060;-81
2022/07/26 12:17:19;;;;;;;2.55;1.10;;;;;;;;;;5024840;28;20055;-82
2022/07/26 12:20:15;;;;;;;2.55;1.00;;;;;;;;;;5035596;28;20048;-82
2022/07/26 12:23:04;;;;;;;2.83;1.05;;;;;;;;;;5037545;28;20418;-81
2022/07/26 12:25:50;;;;;;;2.90;0.90;;;;;;;;;;5025633;28;20041;-81
2022/07/26 12:28:40;;;;;;;2.88;0.93;;;;;;;;;;5050584;28;20036;-82
2022/07/26 12:31:30;;;;;;;2.00;0.82;;;;;;;;;;5037371;28;20419;-82
2022/07/26 12:34:20;;;;;;;2.92;1.02;;;;;;;;;;5038092;28;20045;-82
2022/07/26 12:37:06;;;;;;;1.45;0.68;;;;;;;;;;5024885;28;20456;-82
2022/07/26 12:40:08;;;;;;;1.40;1.00;;;;;;;;;;5037113;28;20033;-82
2022/07/26 12:42:56;;;;;;;1.65;1.02;;;;;;;;;;5035578;28;20427;-82
2022/07/26 12:45:42;;;;;;;1.67;0.77;;;;;;;;;;5036789;28;20457;-81
2022/07/26 12:48:28;;;;;;;1.50;0.85;;;;;;;;;;5022896;28;20051;-81
2022/07/26 12:51:14;;;;;;;2.53;0.68;;;;;;;;;;5022162;28;20033;-82
2022/07/26 12:53:59;;;;;;;1.35;0.68;;;;;;;;;;5036942;28;20049;-81
2022/07/26 12:56:45;;;;;;;1.60;0.63;;;;;;;;;;5036236;28;20040;-82
2022/07/26 12:59:31;;;;;;;2.92;0.80;;;;;;;;;;5034927;28;20128;-82
2022/07/26 13:02:17;;;;;;;1.80;0.70;;;;;;;;;;5021407;28;20032;-82
2022/07/26 13:05:03;;;;;;;1.50;0.70;;;;;;;;;;5035070;28;20037;-81
2022/07/26 13:07:50;;;;;;;1.65;0.52;;;;;;;;;;5023271;28;20120;-81
2022/07/26 13:10:36;;;;;;;1.77;0.68;;;;;;;;;;5037267;28;20045;-81
2022/07/26 13:13:21;;;;;;;1.58;0.50;;;;;;;;;;5021741;28;20056;-81
2022/07/26 13:16:07;;;;;;;1.40;0.75;;;;;;;;;;5021754;28;20076;-81
2022/07/26 13:18:54;;;;;;;1.52;0.60;;;;;;;;;;5036282;28;20083;-81
2022/07/26 13:21:40;;;;;;;1.50;0.80;;;;;;;;;;5036603;28;20068;-82
2022/07/26 13:24:26;;;;;;;0.90;0.47;;;;;;;;;;5036558;28;20037;-81
2022/07/26 13:27:12;;;;;;;1.80;0.70;;;;;;;;;;5036732;28;20491;-82
2022/07/26 13:29:58;;;;;;;2.33;0.68;;;;;;;;;;5036663;28;20040;-81
2022/07/26 13:32:43;;;;;;;0.88;0.45;;;;;;;;;;5021304;28;20056;-81
2022/07/26 13:35:29;;;;;;;0.82;0.40;;;;;;;;;;5021349;28;20488;-81
2022/07/26 13:38:17;;;;;;;2.13;0.88;;;;;;;;;;5021816;28;20044;-82
2022/07/26 13:41:03;;;;;;;1.77;0.70;;;;;;;;;;5036672;28;20049;-81
2022/07/26 13:43:50;;;;;;;1.13;0.50;;;;;;;;;;5036399;28;20507;-81
2022/07/26 13:46:36;;;;;;;0.98;0.38;;;;;;;;;;5048132;28;20045;-81
2022/07/26 13:49:22;;;;;;;1.25;0.40;;;;;;;;;;5021393;28;20033;-81
2022/07/26 13:52:07;;;;;;;0.90;0.50;;;;;;;;;;5036165;28;20115;-81
2022/07/26 13:54:53;;;;;;;1.92;0.50;;;;;;;;;;5021609;28;20040;-82
2022/07/26 13:57:39;;;;;;;0.98;0.32;;;;;;;;;;5022446;28;20071;-81
2022/07/26 14:00:25;;;;;;;1.08;0.43;;;;;;;;;;5022786;28;20046;-81
2022/07/26 14:03:11;;;;;;;1.25;0.30;;;;;;;;;;5021443;28;20041;-81
2022/07/26 14:05:57;;;;;;;0.85;0.35;;;;;;;;;;5021345;28;20598;-81
2022/07/26 14:08:42;;;;;;;0.65;0.30;;;;;;;;;;5034197;28;20562;-81
2022/07/26 14:11:28;;;;;;;1.08;0.50;;;;;;;;;;5022967;28;20037;-81
2022/07/26 14:14:14;;;;;;;3.55;0.63;;;;;;;;;;5021922;28;20039;-81
2022/07/26 14:16:59;;;;;;;0.85;0.40;;;;;;;;;;5022715;28;20037;-81
2022/07/26 14:19:45;;;;;;;1.15;0.30;;;;;;;;;;5022940;28;20049;-81
2022/07/26 14:22:34;;;;;;;1.65;0.50;;;;;;;;;;5024567;28;20037;-81
2022/07/26 14:25:20;;;;;;;1.95;0.93;;;;;;;;;;5039915;28;20048;-81
2022/07/26 14:28:06;;;;;;;1.55;0.50;;;;;;;;;;5024877;28;20047;-81
2022/07/26 14:30:52;;;;;;;1.08;0.50;;;;;;;;;;5024436;28;20047;-81
2022/07/26 14:33:37;;;;;;;1.02;0.30;;;;;;;;;;5039393;28;20029;-81
2022/07/26 14:36:23;;;;;;;2.63;0.50;;;;;;;;;;5039939;28;20041;-81
2022/07/26 14:39:09;;;;;;;1.20;0.43;;;;;;;;;;5051653;28;20102;-81
2022/07/26 14:41:54;;;;;;;2.47;0.38;;;;;;;;;;5039371;28;20045;-81
2022/07/26 14:44:40;;;;;;;1.30;0.50;;;;;;;;;;5039086;28;20031;-81
2022/07/26 14:47:26;;;;;;;1.40;0.60;;;;;;;;;;5025359;28;20052;-81
2022/07/26 14:50:12;;;;;;;1.33;0.40;;;;;;;;;;5026047;28;20041;-81
2022/07/26 14:52:58;;;;;;;0.77;0.38;;;;;;;;;;5024281;28;20475;-81
2022/07/26 14:55:44;;;;;;;1.25;0.50;;;;;;;;;;5039137;28;20107;-81
2022/07/26 14:58:30;;;;;;;0.93;0.40;;;;;;;;;;5038734;28;20041;-81
2022/07/26 15:01:15;;;;;;;1.02;0.40;;;;;;;;;;5023807;28;20034;-81
2022/07/26 15:04:01;;;;;;;0.98;0.30;;;;;;;;;;5024168;28;20052;-80
2022/07/26 15:06:47;;;;;;;1.25;0.60;;;;;;;;;;5026105;28;20131;-81
2022/07/26 15:09:32;;;;;;;0.80;0.40;;;;;;;;;;5025013;28;20079;-81
2022/07/26 15:12:18;;;;;;;1.17;0.28;;;;;;;;;;5038774;28;20025;-81
2022/07/26 15:15:05;;;;;;;2.03;0.55;;;;;;;;;;5052470;28;20048;-81
2022/07/26 15:17:51;;;;;;;1.13;0.38;;;;;;;;;;5038164;28;20045;-81
2022/07/26 15:20:38;;;;;;;0.85;0.40;;;;;;;;;;5023450;28;20095;-80
2022/07/26 15:23:25;;;;;;;1.15;0.40;;;;;;;;;;5025394;28;20033;-80
2022/07/26 15:26:10;;;;;;;0.95;0.75;;;;;;;;;;5025173;28;20064;-80
2022/07/26 15:28:56;;;;;;;1.98;0.65;;;;;;;;;;5024038;28;20041;-81
2022/07/26 15:31:43;;;;;;;1.30;0.50;;;;;;;;;;5038660;28;20166;-81
2022/07/26 15:34:28;;;;;;;1.35;0.30;;;;;;;;;;5038809;28;20074;-81
2022/07/26 15:37:14;;;;;;;0.80;0.40;;;;;;;;;;5026020;28;20048;-80
2022/07/26 15:40:00;;;;;;;2.00;0.70;;;;;;;;;;5023465;28;20055;-81
2022/07/26 15:42:47;;;;;;;1.60;0.32;;;;;;;;;;5023037;28;20061;-82
2022/07/26 15:45:33;;;;;;;1.38;0.30;;;;;;;;;;5023166;28;20503;-81
2022/07/26 15:48:19;;;;;;;0.60;0.10;;;;;;;;;;5023356;28;20557;-81
2022/07/26 15:51:04;;;;;;;0.50;0.25;;;;;;;;;;5024294;28;20506;-81
2022/07/26 15:53:50;;;;;;;0.75;0.30;;;;;;;;;;5023431;28;20388;-81
2022/07/26 15:56:36;;;;;;;0.82;0.40;;;;;;;;;;5024984;28;20048;-81
2022/07/26 15:59:22;;;;;;;0.90;0.20;;;;;;;;;;5037766;28;20029;-81
2022/07/26 16:02:07;;;;;;;1.05;0.30;;;;;;;;;;5025405;28;20090;-81
2022/07/26 16:04:53;;;;;;;0.40;0.20;;;;;;;;;;5024742;28;20562;-82
2022/07/26 16:07:40;;;;;;;0.75;0.30;;;;;;;;;;5037178;28;20052;-81
2022/07/26 16:10:25;;;;;;;0.65;0.30;;;;;;;;;;5023045;28;20040;-81
2022/07/26 16:13:11;;;;;;;1.17;0.38;;;;;;;;;;5023169;28;20041;-81
2022/07/26 16:15:57;;;;;;;0.93;0.30;;;;;;;;;;5022568;28;20049;-81
2022/07/26 16:18:43;;;;;;;0.85;0.20;;;;;;;;;;5037317;28;20462;-81
2022/07/26 16:21:28;;;;;;;0.98;0.22;;;;;;;;;;5022433;28;20033;-80
2022/07/26 16:24:14;;;;;;;0.85;0.28;;;;;;;;;;5022749;28;20073;-81
2022/07/26 16:27:00;;;;;;;0.25;0.20;;;;;;;;;;5022448;28;20040;-81
2022/07/26 16:29:46;;;;;;;2.20;0.60;;;;;;;;;;5022583;28;20128;-81
2022/07/26 16:32:31;;;;;;;0.73;0.35;;;;;;;;;;5022273;28;20036;-81
2022/07/26 16:35:17;;;;;;;0.70;0.28;;;;;;;;;;5037276;28;20040;-81
2022/07/26 16:38:03;;;;;;;0.82;0.20;;;;;;;;;;5037175;28;20119;-81
2022/07/26 16:40:48;;;;;;;0.30;0.20;;;;;;;;;;5022091;28;20041;-81